sensor_id;sensor_type;location;lat;lon;timestamp;P1;durP1;ratioP1;P2;durP2;ratioP2
71464;SDS011;59274;49.874;9.154;2024-01-30T00:01:12;15.55;;;8.10;;
71464;SDS011;59274;49.874;9.154;2024-01-30T00:03:38;18.30;;;8.03;;
71464;SDS011;59274;49.874;9.154;2024-01-30T00:06:03;16.40;;;8.23;;
71464;SDS011;59274;49.874;9.154;2024-01-30T00:08:29;15.43;;;7.68;;
71464;SDS011;59274;49.874;9.154;2024-01-30T00:10:54;15.82;;;8.02;;
71464;SDS011;59274;49.874;9.154;2024-01-30T00:13:20;16.47;;;7.60;;
71464;SDS011;59274;49.874;9.154;2024-01-30T00:15:45;15.47;;;7.97;;
71464;SDS011;59274;49.874;9.154;2024-01-30T00:18:11;15.90;;;7.97;;
71464;SDS011;59274;49.874;9.154;2024-01-30T00:20:36;16.58;;;8.32;;
71464;SDS011;59274;49.874;9.154;2024-01-30T00:23:02;16.43;;;8.27;;
71464;SDS011;59274;49.874;9.154;2024-01-30T00:25:27;17.83;;;8.35;;
71464;SDS011;59274;49.874;9.154;2024-01-30T00:27:53;15.47;;;7.57;;
71464;SDS011;59274;49.874;9.154;2024-01-30T00:30:20;15.93;;;7.87;;
71464;SDS011;59274;49.874;9.154;2024-01-30T00:32:45;15.85;;;7.78;;
71464;SDS011;59274;49.874;9.154;2024-01-30T00:35:11;17.73;;;8.43;;
71464;SDS011;59274;49.874;9.154;2024-01-30T00:37:36;17.60;;;8.50;;
71464;SDS011;59274;49.874;9.154;2024-01-30T00:40:02;14.90;;;7.20;;
71464;SDS011;59274;49.874;9.154;2024-01-30T00:42:28;16.33;;;7.70;;
71464;SDS011;59274;49.874;9.154;2024-01-30T00:44:54;16.27;;;8.17;;
71464;SDS011;59274;49.874;9.154;2024-01-30T00:47:19;16.37;;;7.63;;
71464;SDS011;59274;49.874;9.154;2024-01-30T00:49:45;14.70;;;7.72;;
71464;SDS011;59274;49.874;9.154;2024-01-30T00:52:11;13.47;;;7.47;;
71464;SDS011;59274;49.874;9.154;2024-01-30T00:54:36;16.85;;;7.20;;
71464;SDS011;59274;49.874;9.154;2024-01-30T00:57:02;16.02;;;7.85;;
71464;SDS011;59274;49.874;9.154;2024-01-30T00:59:27;16.90;;;8.40;;
71464;SDS011;59274;49.874;9.154;2024-01-30T01:01:53;14.37;;;7.73;;
71464;SDS011;59274;49.874;9.154;2024-01-30T01:04:18;17.48;;;8.00;;
71464;SDS011;59274;49.874;9.154;2024-01-30T01:06:46;15.83;;;7.63;;
71464;SDS011;59274;49.874;9.154;2024-01-30T01:09:12;15.35;;;7.35;;
71464;SDS011;59274;49.874;9.154;2024-01-30T01:11:38;19.00;;;8.90;;
71464;SDS011;59274;49.874;9.154;2024-01-30T01:14:04;15.93;;;7.27;;
71464;SDS011;59274;49.874;9.154;2024-01-30T01:16:30;18.02;;;7.78;;
71464;SDS011;59274;49.874;9.154;2024-01-30T01:18:55;17.00;;;7.72;;
71464;SDS011;59274;49.874;9.154;2024-01-30T01:21:21;17.87;;;7.60;;
71464;SDS011;59274;49.874;9.154;2024-01-30T01:23:47;15.00;;;7.93;;
71464;SDS011;59274;49.874;9.154;2024-01-30T01:26:12;17.57;;;8.07;;
71464;SDS011;59274;49.874;9.154;2024-01-30T01:28:41;17.38;;;8.00;;
71464;SDS011;59274;49.874;9.154;2024-01-30T01:31:07;16.57;;;8.03;;
71464;SDS011;59274;49.874;9.154;2024-01-30T01:33:33;15.20;;;7.40;;
71464;SDS011;59274;49.874;9.154;2024-01-30T01:35:59;15.20;;;7.53;;
71464;SDS011;59274;49.874;9.154;2024-01-30T01:38:27;14.57;;;7.85;;
71464;SDS011;59274;49.874;9.154;2024-01-30T01:40:53;14.67;;;8.27;;
71464;SDS011;59274;49.874;9.154;2024-01-30T01:43:19;15.95;;;7.80;;
71464;SDS011;59274;49.874;9.154;2024-01-30T01:45:44;14.80;;;7.10;;
71464;SDS011;59274;49.874;9.154;2024-01-30T01:48:10;14.55;;;7.65;;
71464;SDS011;59274;49.874;9.154;2024-01-30T01:50:37;16.58;;;7.45;;
71464;SDS011;59274;49.874;9.154;2024-01-30T01:53:05;13.63;;;7.33;;
71464;SDS011;59274;49.874;9.154;2024-01-30T01:55:33;14.65;;;7.47;;
71464;SDS011;59274;49.874;9.154;2024-01-30T01:58:00;14.88;;;7.90;;
71464;SDS011;59274;49.874;9.154;2024-01-30T02:00:25;12.88;;;7.25;;
71464;SDS011;59274;49.874;9.154;2024-01-30T02:02:51;14.30;;;8.10;;
71464;SDS011;59274;49.874;9.154;2024-01-30T02:05:19;16.23;;;7.45;;
71464;SDS011;59274;49.874;9.154;2024-01-30T02:07:46;15.80;;;7.38;;
71464;SDS011;59274;49.874;9.154;2024-01-30T02:10:12;14.38;;;7.82;;
71464;SDS011;59274;49.874;9.154;2024-01-30T02:12:38;14.70;;;7.57;;
71464;SDS011;59274;49.874;9.154;2024-01-30T02:15:04;14.30;;;7.28;;
71464;SDS011;59274;49.874;9.154;2024-01-30T02:17:30;16.20;;;7.30;;
71464;SDS011;59274;49.874;9.154;2024-01-30T02:19:56;16.58;;;7.05;;
71464;SDS011;59274;49.874;9.154;2024-01-30T02:22:21;14.17;;;7.60;;
71464;SDS011;59274;49.874;9.154;2024-01-30T02:24:48;14.40;;;7.63;;
71464;SDS011;59274;49.874;9.154;2024-01-30T02:27:13;13.93;;;7.43;;
71464;SDS011;59274;49.874;9.154;2024-01-30T02:29:39;13.87;;;6.97;;
71464;SDS011;59274;49.874;9.154;2024-01-30T02:32:04;13.60;;;7.00;;
71464;SDS011;59274;49.874;9.154;2024-01-30T02:34:31;15.65;;;7.07;;
71464;SDS011;59274;49.874;9.154;2024-01-30T02:36:57;14.33;;;6.97;;
71464;SDS011;59274;49.874;9.154;2024-01-30T02:39:22;17.20;;;7.45;;
71464;SDS011;59274;49.874;9.154;2024-01-30T02:41:48;15.83;;;7.87;;
71464;SDS011;59274;49.874;9.154;2024-01-30T02:44:13;14.90;;;7.30;;
71464;SDS011;59274;49.874;9.154;2024-01-30T02:46:38;14.40;;;7.33;;
71464;SDS011;59274;49.874;9.154;2024-01-30T02:49:04;15.57;;;7.87;;
71464;SDS011;59274;49.874;9.154;2024-01-30T02:51:29;14.68;;;6.88;;
71464;SDS011;59274;49.874;9.154;2024-01-30T02:53:54;15.30;;;7.37;;
71464;SDS011;59274;49.874;9.154;2024-01-30T02:56:20;13.13;;;7.03;;
71464;SDS011;59274;49.874;9.154;2024-01-30T02:58:46;14.80;;;7.37;;
71464;SDS011;59274;49.874;9.154;2024-01-30T03:01:11;16.52;;;7.40;;
71464;SDS011;59274;49.874;9.154;2024-01-30T03:03:36;14.13;;;7.20;;
71464;SDS011;59274;49.874;9.154;2024-01-30T03:06:02;15.27;;;7.53;;
71464;SDS011;59274;49.874;9.154;2024-01-30T03:08:27;17.47;;;8.30;;
71464;SDS011;59274;49.874;9.154;2024-01-30T03:10:53;15.60;;;8.52;;
71464;SDS011;59274;49.874;9.154;2024-01-30T03:13:19;15.87;;;8.37;;
71464;SDS011;59274;49.874;9.154;2024-01-30T03:15:44;19.20;;;8.80;;
71464;SDS011;59274;49.874;9.154;2024-01-30T03:18:10;15.75;;;8.73;;
71464;SDS011;59274;49.874;9.154;2024-01-30T03:20:35;16.63;;;8.13;;
71464;SDS011;59274;49.874;9.154;2024-01-30T03:23:01;17.83;;;8.23;;
71464;SDS011;59274;49.874;9.154;2024-01-30T03:25:26;16.17;;;8.33;;
71464;SDS011;59274;49.874;9.154;2024-01-30T03:27:52;16.15;;;8.63;;
71464;SDS011;59274;49.874;9.154;2024-01-30T03:30:17;17.17;;;8.03;;
71464;SDS011;59274;49.874;9.154;2024-01-30T03:32:43;16.73;;;7.50;;
71464;SDS011;59274;49.874;9.154;2024-01-30T03:35:09;18.98;;;8.15;;
71464;SDS011;59274;49.874;9.154;2024-01-30T03:37:35;13.98;;;8.18;;
71464;SDS011;59274;49.874;9.154;2024-01-30T03:40:01;13.38;;;7.95;;
71464;SDS011;59274;49.874;9.154;2024-01-30T03:42:26;15.38;;;7.60;;
71464;SDS011;59274;49.874;9.154;2024-01-30T03:44:52;14.67;;;7.63;;
71464;SDS011;59274;49.874;9.154;2024-01-30T03:47:18;13.60;;;7.00;;
71464;SDS011;59274;49.874;9.154;2024-01-30T03:49:45;17.30;;;7.97;;
71464;SDS011;59274;49.874;9.154;2024-01-30T03:52:10;15.48;;;6.95;;
71464;SDS011;59274;49.874;9.154;2024-01-30T03:54:36;13.47;;;6.77;;
71464;SDS011;59274;49.874;9.154;2024-01-30T03:57:01;17.23;;;8.20;;
71464;SDS011;59274;49.874;9.154;2024-01-30T03:59:27;14.87;;;6.83;;
71464;SDS011;59274;49.874;9.154;2024-01-30T04:01:52;13.90;;;7.65;;
71464;SDS011;59274;49.874;9.154;2024-01-30T04:04:18;15.57;;;7.83;;
71464;SDS011;59274;49.874;9.154;2024-01-30T04:06:44;16.58;;;7.43;;
71464;SDS011;59274;49.874;9.154;2024-01-30T04:09:10;14.32;;;7.97;;
71464;SDS011;59274;49.874;9.154;2024-01-30T04:11:36;15.90;;;8.00;;
71464;SDS011;59274;49.874;9.154;2024-01-30T04:14:01;14.63;;;7.53;;
71464;SDS011;59274;49.874;9.154;2024-01-30T04:16:27;16.07;;;7.40;;
71464;SDS011;59274;49.874;9.154;2024-01-30T04:18:52;15.43;;;8.20;;
71464;SDS011;59274;49.874;9.154;2024-01-30T04:21:18;15.83;;;7.47;;
71464;SDS011;59274;49.874;9.154;2024-01-30T04:23:45;16.48;;;7.45;;
71464;SDS011;59274;49.874;9.154;2024-01-30T04:26:11;13.97;;;7.87;;
71464;SDS011;59274;49.874;9.154;2024-01-30T04:28:36;16.13;;;7.33;;
71464;SDS011;59274;49.874;9.154;2024-01-30T04:31:02;11.75;;;6.68;;
71464;SDS011;59274;49.874;9.154;2024-01-30T04:33:27;18.50;;;7.77;;
71464;SDS011;59274;49.874;9.154;2024-01-30T04:35:53;13.53;;;7.27;;
71464;SDS011;59274;49.874;9.154;2024-01-30T04:38:19;15.35;;;8.15;;
71464;SDS011;59274;49.874;9.154;2024-01-30T04:40:44;17.03;;;8.70;;
71464;SDS011;59274;49.874;9.154;2024-01-30T04:43:09;17.87;;;8.13;;
71464;SDS011;59274;49.874;9.154;2024-01-30T04:45:35;14.70;;;7.87;;
71464;SDS011;59274;49.874;9.154;2024-01-30T04:48:00;13.90;;;7.90;;
71464;SDS011;59274;49.874;9.154;2024-01-30T04:50:26;19.53;;;8.77;;
71464;SDS011;59274;49.874;9.154;2024-01-30T04:52:51;20.33;;;8.73;;
71464;SDS011;59274;49.874;9.154;2024-01-30T04:55:17;18.67;;;8.70;;
71464;SDS011;59274;49.874;9.154;2024-01-30T04:57:43;18.92;;;8.38;;
71464;SDS011;59274;49.874;9.154;2024-01-30T05:00:08;17.50;;;8.53;;
71464;SDS011;59274;49.874;9.154;2024-01-30T05:02:35;15.80;;;8.02;;
71464;SDS011;59274;49.874;9.154;2024-01-30T05:05:00;17.50;;;8.87;;
71464;SDS011;59274;49.874;9.154;2024-01-30T05:07:26;18.40;;;8.63;;
71464;SDS011;59274;49.874;9.154;2024-01-30T05:09:51;19.50;;;8.52;;
71464;SDS011;59274;49.874;9.154;2024-01-30T05:12:17;23.53;;;8.83;;
71464;SDS011;59274;49.874;9.154;2024-01-30T05:14:42;19.70;;;9.33;;
71464;SDS011;59274;49.874;9.154;2024-01-30T05:17:08;20.25;;;10.27;;
71464;SDS011;59274;49.874;9.154;2024-01-30T05:19:35;20.33;;;9.60;;
71464;SDS011;59274;49.874;9.154;2024-01-30T05:22:00;23.85;;;9.38;;
71464;SDS011;59274;49.874;9.154;2024-01-30T05:24:26;20.60;;;9.70;;
71464;SDS011;59274;49.874;9.154;2024-01-30T05:26:51;21.73;;;9.63;;
71464;SDS011;59274;49.874;9.154;2024-01-30T05:29:17;20.23;;;9.70;;
71464;SDS011;59274;49.874;9.154;2024-01-30T05:31:42;21.50;;;9.67;;
71464;SDS011;59274;49.874;9.154;2024-01-30T05:34:07;17.67;;;9.23;;
71464;SDS011;59274;49.874;9.154;2024-01-30T05:36:34;19.83;;;9.13;;
71464;SDS011;59274;49.874;9.154;2024-01-30T05:38:59;20.88;;;9.55;;
71464;SDS011;59274;49.874;9.154;2024-01-30T05:41:25;16.40;;;9.60;;
71464;SDS011;59274;49.874;9.154;2024-01-30T05:43:50;20.67;;;9.20;;
71464;SDS011;59274;49.874;9.154;2024-01-30T05:46:18;18.73;;;8.43;;
71464;SDS011;59274;49.874;9.154;2024-01-30T05:48:44;17.17;;;7.70;;
71464;SDS011;59274;49.874;9.154;2024-01-30T05:51:09;14.60;;;7.73;;
71464;SDS011;59274;49.874;9.154;2024-01-30T05:53:35;17.38;;;8.07;;
71464;SDS011;59274;49.874;9.154;2024-01-30T05:56:01;16.50;;;8.07;;
71464;SDS011;59274;49.874;9.154;2024-01-30T05:58:27;17.48;;;9.70;;
71464;SDS011;59274;49.874;9.154;2024-01-30T06:00:53;20.20;;;9.43;;
71464;SDS011;59274;49.874;9.154;2024-01-30T06:03:18;22.25;;;9.27;;
71464;SDS011;59274;49.874;9.154;2024-01-30T06:05:44;19.38;;;9.75;;
71464;SDS011;59274;49.874;9.154;2024-01-30T06:08:09;19.07;;;9.63;;
71464;SDS011;59274;49.874;9.154;2024-01-30T06:10:35;17.80;;;9.17;;
71464;SDS011;59274;49.874;9.154;2024-01-30T06:13:01;19.83;;;9.10;;
71464;SDS011;59274;49.874;9.154;2024-01-30T06:15:27;17.20;;;8.73;;
71464;SDS011;59274;49.874;9.154;2024-01-30T06:17:54;16.77;;;9.15;;
71464;SDS011;59274;49.874;9.154;2024-01-30T06:20:20;17.80;;;8.70;;
71464;SDS011;59274;49.874;9.154;2024-01-30T06:22:45;17.38;;;8.60;;
71464;SDS011;59274;49.874;9.154;2024-01-30T06:25:11;21.58;;;9.25;;
71464;SDS011;59274;49.874;9.154;2024-01-30T06:27:37;14.63;;;8.07;;
71464;SDS011;59274;49.874;9.154;2024-01-30T06:30:03;20.63;;;9.40;;
71464;SDS011;59274;49.874;9.154;2024-01-30T06:32:29;15.07;;;7.63;;
71464;SDS011;59274;49.874;9.154;2024-01-30T06:34:59;16.30;;;8.43;;
71464;SDS011;59274;49.874;9.154;2024-01-30T06:37:25;16.00;;;8.30;;
71464;SDS011;59274;49.874;9.154;2024-01-30T06:39:51;17.05;;;8.77;;
71464;SDS011;59274;49.874;9.154;2024-01-30T06:42:17;20.83;;;9.07;;
71464;SDS011;59274;49.874;9.154;2024-01-30T06:44:43;19.10;;;8.93;;
71464;SDS011;59274;49.874;9.154;2024-01-30T06:47:09;15.80;;;9.37;;
71464;SDS011;59274;49.874;9.154;2024-01-30T06:49:34;21.48;;;9.40;;
71464;SDS011;59274;49.874;9.154;2024-01-30T06:52:00;18.77;;;9.50;;
71464;SDS011;59274;49.874;9.154;2024-01-30T06:54:25;18.90;;;10.27;;
71464;SDS011;59274;49.874;9.154;2024-01-30T06:56:51;21.30;;;9.65;;
71464;SDS011;59274;49.874;9.154;2024-01-30T06:59:16;19.43;;;9.87;;
71464;SDS011;59274;49.874;9.154;2024-01-30T07:01:41;20.87;;;9.30;;
71464;SDS011;59274;49.874;9.154;2024-01-30T07:04:07;18.77;;;8.47;;
71464;SDS011;59274;49.874;9.154;2024-01-30T07:06:32;19.30;;;9.27;;
71464;SDS011;59274;49.874;9.154;2024-01-30T07:08:58;21.30;;;9.30;;
71464;SDS011;59274;49.874;9.154;2024-01-30T07:11:23;18.75;;;9.07;;
71464;SDS011;59274;49.874;9.154;2024-01-30T07:13:50;19.48;;;8.75;;
71464;SDS011;59274;49.874;9.154;2024-01-30T07:16:16;18.58;;;9.15;;
71464;SDS011;59274;49.874;9.154;2024-01-30T07:18:41;19.40;;;9.93;;
71464;SDS011;59274;49.874;9.154;2024-01-30T07:21:07;22.77;;;9.83;;
71464;SDS011;59274;49.874;9.154;2024-01-30T07:23:32;19.02;;;9.32;;
71464;SDS011;59274;49.874;9.154;2024-01-30T07:25:59;18.50;;;9.50;;
71464;SDS011;59274;49.874;9.154;2024-01-30T07:28:26;19.98;;;9.85;;
71464;SDS011;59274;49.874;9.154;2024-01-30T07:30:51;20.27;;;9.23;;
71464;SDS011;59274;49.874;9.154;2024-01-30T07:33:16;20.55;;;8.85;;
71464;SDS011;59274;49.874;9.154;2024-01-30T07:35:43;16.97;;;8.73;;
71464;SDS011;59274;49.874;9.154;2024-01-30T07:38:08;19.13;;;10.43;;
71464;SDS011;59274;49.874;9.154;2024-01-30T07:40:34;20.13;;;9.80;;
71464;SDS011;59274;49.874;9.154;2024-01-30T07:42:59;18.60;;;9.17;;
71464;SDS011;59274;49.874;9.154;2024-01-30T07:45:25;18.50;;;9.50;;
71464;SDS011;59274;49.874;9.154;2024-01-30T07:47:52;17.67;;;10.23;;
71464;SDS011;59274;49.874;9.154;2024-01-30T07:50:18;25.20;;;10.63;;
71464;SDS011;59274;49.874;9.154;2024-01-30T07:52:44;23.87;;;10.60;;
71464;SDS011;59274;49.874;9.154;2024-01-30T07:55:09;19.20;;;9.50;;
71464;SDS011;59274;49.874;9.154;2024-01-30T07:57:35;28.93;;;11.40;;
71464;SDS011;59274;49.874;9.154;2024-01-30T08:00:01;17.93;;;9.47;;
71464;SDS011;59274;49.874;9.154;2024-01-30T08:02:28;18.40;;;9.80;;
71464;SDS011;59274;49.874;9.154;2024-01-30T08:04:53;18.80;;;9.27;;
71464;SDS011;59274;49.874;9.154;2024-01-30T08:07:19;19.23;;;8.73;;
71464;SDS011;59274;49.874;9.154;2024-01-30T08:09:44;19.73;;;9.20;;
71464;SDS011;59274;49.874;9.154;2024-01-30T08:12:10;19.87;;;10.10;;
71464;SDS011;59274;49.874;9.154;2024-01-30T08:14:35;17.47;;;9.00;;
71464;SDS011;59274;49.874;9.154;2024-01-30T08:17:00;19.10;;;10.05;;
71464;SDS011;59274;49.874;9.154;2024-01-30T08:19:26;17.43;;;9.47;;
71464;SDS011;59274;49.874;9.154;2024-01-30T08:21:51;17.60;;;8.93;;
71464;SDS011;59274;49.874;9.154;2024-01-30T08:24:17;20.00;;;8.93;;
71464;SDS011;59274;49.874;9.154;2024-01-30T08:26:42;18.60;;;10.20;;
71464;SDS011;59274;49.874;9.154;2024-01-30T08:29:08;17.23;;;9.57;;
71464;SDS011;59274;49.874;9.154;2024-01-30T08:31:33;19.53;;;9.33;;
71464;SDS011;59274;49.874;9.154;2024-01-30T08:33:59;42.83;;;14.80;;
71464;SDS011;59274;49.874;9.154;2024-01-30T08:36:24;24.70;;;10.47;;
71464;SDS011;59274;49.874;9.154;2024-01-30T08:38:50;18.20;;;9.27;;
71464;SDS011;59274;49.874;9.154;2024-01-30T08:41:15;20.07;;;9.77;;
71464;SDS011;59274;49.874;9.154;2024-01-30T08:43:41;18.65;;;9.63;;
71464;SDS011;59274;49.874;9.154;2024-01-30T08:46:06;16.17;;;8.73;;
71464;SDS011;59274;49.874;9.154;2024-01-30T08:48:32;23.23;;;9.53;;
71464;SDS011;59274;49.874;9.154;2024-01-30T08:50:57;19.57;;;9.10;;
71464;SDS011;59274;49.874;9.154;2024-01-30T08:53:23;22.70;;;8.83;;
71464;SDS011;59274;49.874;9.154;2024-01-30T08:55:48;17.65;;;9.18;;
71464;SDS011;59274;49.874;9.154;2024-01-30T08:58:13;19.60;;;9.30;;
71464;SDS011;59274;49.874;9.154;2024-01-30T09:00:40;18.27;;;8.80;;
71464;SDS011;59274;49.874;9.154;2024-01-30T09:03:06;16.80;;;9.27;;
71464;SDS011;59274;49.874;9.154;2024-01-30T09:05:31;22.67;;;9.57;;
71464;SDS011;59274;49.874;9.154;2024-01-30T09:07:56;19.30;;;9.00;;
71464;SDS011;59274;49.874;9.154;2024-01-30T09:10:22;16.57;;;8.93;;
71464;SDS011;59274;49.874;9.154;2024-01-30T09:12:47;18.20;;;8.57;;
71464;SDS011;59274;49.874;9.154;2024-01-30T09:15:14;17.97;;;9.70;;
71464;SDS011;59274;49.874;9.154;2024-01-30T09:17:40;19.80;;;9.05;;
71464;SDS011;59274;49.874;9.154;2024-01-30T09:20:05;16.70;;;8.90;;
71464;SDS011;59274;49.874;9.154;2024-01-30T09:22:31;17.92;;;8.93;;
71464;SDS011;59274;49.874;9.154;2024-01-30T09:24:57;18.23;;;9.35;;
71464;SDS011;59274;49.874;9.154;2024-01-30T09:27:23;18.30;;;8.63;;
71464;SDS011;59274;49.874;9.154;2024-01-30T09:29:48;24.90;;;10.93;;
71464;SDS011;59274;49.874;9.154;2024-01-30T09:32:14;20.08;;;9.18;;
71464;SDS011;59274;49.874;9.154;2024-01-30T09:34:40;22.77;;;9.17;;
71464;SDS011;59274;49.874;9.154;2024-01-30T09:37:05;17.00;;;9.10;;
71464;SDS011;59274;49.874;9.154;2024-01-30T09:39:30;19.13;;;9.32;;
71464;SDS011;59274;49.874;9.154;2024-01-30T09:42:05;19.47;;;9.67;;
71464;SDS011;59274;49.874;9.154;2024-01-30T09:44:34;20.20;;;10.05;;
71464;SDS011;59274;49.874;9.154;2024-01-30T09:47:01;21.03;;;10.10;;
71464;SDS011;59274;49.874;9.154;2024-01-30T09:49:33;18.77;;;10.30;;
71464;SDS011;59274;49.874;9.154;2024-01-30T09:52:01;20.42;;;10.55;;
71464;SDS011;59274;49.874;9.154;2024-01-30T09:54:30;24.38;;;11.35;;
71464;SDS011;59274;49.874;9.154;2024-01-30T09:56:59;23.92;;;10.90;;
71464;SDS011;59274;49.874;9.154;2024-01-30T09:59:24;19.10;;;10.63;;
71464;SDS011;59274;49.874;9.154;2024-01-30T10:01:50;21.00;;;9.70;;
71464;SDS011;59274;49.874;9.154;2024-01-30T10:04:16;20.02;;;10.30;;
71464;SDS011;59274;49.874;9.154;2024-01-30T10:06:42;25.33;;;11.03;;
71464;SDS011;59274;49.874;9.154;2024-01-30T10:09:07;24.30;;;10.35;;
71464;SDS011;59274;49.874;9.154;2024-01-30T10:11:34;20.65;;;10.48;;
71464;SDS011;59274;49.874;9.154;2024-01-30T10:14:01;22.93;;;11.07;;
71464;SDS011;59274;49.874;9.154;2024-01-30T10:16:26;22.23;;;11.38;;
71464;SDS011;59274;49.874;9.154;2024-01-30T10:18:51;21.47;;;11.00;;
71464;SDS011;59274;49.874;9.154;2024-01-30T10:21:17;21.60;;;12.00;;
71464;SDS011;59274;49.874;9.154;2024-01-30T10:23:43;21.17;;;12.02;;
71464;SDS011;59274;49.874;9.154;2024-01-30T10:26:09;20.73;;;11.13;;
71464;SDS011;59274;49.874;9.154;2024-01-30T10:28:35;22.10;;;12.75;;
71464;SDS011;59274;49.874;9.154;2024-01-30T10:31:00;24.10;;;10.73;;
71464;SDS011;59274;49.874;9.154;2024-01-30T10:33:28;20.10;;;10.85;;
71464;SDS011;59274;49.874;9.154;2024-01-30T10:35:55;22.63;;;10.82;;
71464;SDS011;59274;49.874;9.154;2024-01-30T10:38:27;21.33;;;10.40;;
71464;SDS011;59274;49.874;9.154;2024-01-30T10:40:55;19.38;;;10.68;;
71464;SDS011;59274;49.874;9.154;2024-01-30T10:43:21;20.60;;;10.85;;
71464;SDS011;59274;49.874;9.154;2024-01-30T10:45:49;22.58;;;11.07;;
71464;SDS011;59274;49.874;9.154;2024-01-30T10:48:18;20.20;;;11.10;;
71464;SDS011;59274;49.874;9.154;2024-01-30T10:50:51;17.20;;;10.20;;
71464;SDS011;59274;49.874;9.154;2024-01-30T10:53:20;20.73;;;10.38;;
71464;SDS011;59274;49.874;9.154;2024-01-30T10:55:47;17.13;;;10.07;;
71464;SDS011;59274;49.874;9.154;2024-01-30T10:58:16;18.83;;;10.02;;
71464;SDS011;59274;49.874;9.154;2024-01-30T11:00:42;18.80;;;9.60;;
71464;SDS011;59274;49.874;9.154;2024-01-30T11:03:08;18.05;;;9.77;;
71464;SDS011;59274;49.874;9.154;2024-01-30T11:05:34;17.67;;;9.20;;
71464;SDS011;59274;49.874;9.154;2024-01-30T11:08:10;18.90;;;10.10;;
71464;SDS011;59274;49.874;9.154;2024-01-30T11:10:44;18.20;;;9.05;;
71464;SDS011;59274;49.874;9.154;2024-01-30T11:13:12;16.67;;;9.27;;
71464;SDS011;59274;49.874;9.154;2024-01-30T11:15:38;17.67;;;9.27;;
71464;SDS011;59274;49.874;9.154;2024-01-30T11:18:05;18.73;;;9.40;;
71464;SDS011;59274;49.874;9.154;2024-01-30T11:20:31;15.35;;;8.55;;
71464;SDS011;59274;49.874;9.154;2024-01-30T11:22:57;20.15;;;10.52;;
71464;SDS011;59274;49.874;9.154;2024-01-30T11:25:24;19.60;;;11.38;;
71464;SDS011;59274;49.874;9.154;2024-01-30T11:27:53;20.17;;;11.43;;
71464;SDS011;59274;49.874;9.154;2024-01-30T11:33:02;18.95;;;9.98;;
71464;SDS011;59274;49.874;9.154;2024-01-30T11:35:32;17.95;;;9.23;;
71464;SDS011;59274;49.874;9.154;2024-01-30T11:37:59;16.02;;;9.10;;
71464;SDS011;59274;49.874;9.154;2024-01-30T11:40:29;15.43;;;9.27;;
71464;SDS011;59274;49.874;9.154;2024-01-30T11:42:55;17.73;;;9.00;;
71464;SDS011;59274;49.874;9.154;2024-01-30T11:45:21;19.92;;;9.50;;
71464;SDS011;59274;49.874;9.154;2024-01-30T11:47:47;16.50;;;9.43;;
71464;SDS011;59274;49.874;9.154;2024-01-30T11:50:13;17.80;;;10.30;;
71464;SDS011;59274;49.874;9.154;2024-01-30T11:52:38;23.85;;;11.18;;
71464;SDS011;59274;49.874;9.154;2024-01-30T11:55:04;18.67;;;10.73;;
71464;SDS011;59274;49.874;9.154;2024-01-30T11:57:30;20.63;;;11.55;;
71464;SDS011;59274;49.874;9.154;2024-01-30T12:00:00;33.78;;;16.15;;
71464;SDS011;59274;49.874;9.154;2024-01-30T12:02:35;20.70;;;10.90;;
71464;SDS011;59274;49.874;9.154;2024-01-30T12:05:05;18.95;;;12.27;;
71464;SDS011;59274;49.874;9.154;2024-01-30T12:07:31;19.88;;;11.05;;
71464;SDS011;59274;49.874;9.154;2024-01-30T12:09:57;18.20;;;10.77;;
71464;SDS011;59274;49.874;9.154;2024-01-30T12:12:26;22.25;;;10.73;;
71464;SDS011;59274;49.874;9.154;2024-01-30T12:14:53;20.47;;;10.70;;
71464;SDS011;59274;49.874;9.154;2024-01-30T12:17:29;20.67;;;11.18;;
71464;SDS011;59274;49.874;9.154;2024-01-30T12:20:02;19.00;;;11.20;;
71464;SDS011;59274;49.874;9.154;2024-01-30T12:22:46;18.98;;;10.98;;
71464;SDS011;59274;49.874;9.154;2024-01-30T12:27:42;19.73;;;11.90;;
71464;SDS011;59274;49.874;9.154;2024-01-30T12:30:10;18.05;;;10.95;;
71464;SDS011;59274;49.874;9.154;2024-01-30T12:32:45;19.45;;;10.85;;
71464;SDS011;59274;49.874;9.154;2024-01-30T12:35:13;20.73;;;10.55;;
71464;SDS011;59274;49.874;9.154;2024-01-30T12:37:40;17.83;;;10.15;;
71464;SDS011;59274;49.874;9.154;2024-01-30T12:40:07;17.77;;;9.90;;
71464;SDS011;59274;49.874;9.154;2024-01-30T12:42:34;16.52;;;9.43;;
71464;SDS011;59274;49.874;9.154;2024-01-30T12:45:03;18.23;;;9.98;;
71464;SDS011;59274;49.874;9.154;2024-01-30T12:47:30;19.00;;;10.77;;
71464;SDS011;59274;49.874;9.154;2024-01-30T12:49:55;19.63;;;10.47;;
71464;SDS011;59274;49.874;9.154;2024-01-30T12:52:21;16.85;;;10.18;;
71464;SDS011;59274;49.874;9.154;2024-01-30T12:54:50;19.50;;;11.10;;
71464;SDS011;59274;49.874;9.154;2024-01-30T12:57:17;16.88;;;10.25;;
71464;SDS011;59274;49.874;9.154;2024-01-30T12:59:43;18.65;;;9.88;;
71464;SDS011;59274;49.874;9.154;2024-01-30T13:02:09;19.50;;;10.63;;
71464;SDS011;59274;49.874;9.154;2024-01-30T13:04:35;18.35;;;9.88;;
71464;SDS011;59274;49.874;9.154;2024-01-30T13:07:01;21.30;;;11.20;;
71464;SDS011;59274;49.874;9.154;2024-01-30T13:09:28;19.95;;;11.85;;
71464;SDS011;59274;49.874;9.154;2024-01-30T13:11:55;18.73;;;12.45;;
71464;SDS011;59274;49.874;9.154;2024-01-30T13:14:21;22.63;;;12.40;;
71464;SDS011;59274;49.874;9.154;2024-01-30T13:16:46;20.23;;;11.63;;
71464;SDS011;59274;49.874;9.154;2024-01-30T13:19:11;18.30;;;12.60;;
71464;SDS011;59274;49.874;9.154;2024-01-30T13:21:37;20.52;;;11.32;;
71464;SDS011;59274;49.874;9.154;2024-01-30T13:24:02;20.63;;;11.80;;
71464;SDS011;59274;49.874;9.154;2024-01-30T13:26:28;25.35;;;13.25;;
71464;SDS011;59274;49.874;9.154;2024-01-30T13:28:56;19.67;;;11.57;;
71464;SDS011;59274;49.874;9.154;2024-01-30T13:31:21;21.00;;;11.98;;
71464;SDS011;59274;49.874;9.154;2024-01-30T13:33:47;21.67;;;11.70;;
71464;SDS011;59274;49.874;9.154;2024-01-30T13:36:14;18.00;;;9.98;;
71464;SDS011;59274;49.874;9.154;2024-01-30T13:38:39;18.77;;;10.57;;
71464;SDS011;59274;49.874;9.154;2024-01-30T13:41:05;18.37;;;10.37;;
71464;SDS011;59274;49.874;9.154;2024-01-30T13:43:31;21.10;;;10.77;;
71464;SDS011;59274;49.874;9.154;2024-01-30T13:45:56;20.27;;;11.15;;
71464;SDS011;59274;49.874;9.154;2024-01-30T13:48:22;17.83;;;11.10;;
71464;SDS011;59274;49.874;9.154;2024-01-30T13:50:47;21.23;;;11.63;;
71464;SDS011;59274;49.874;9.154;2024-01-30T13:53:13;23.35;;;12.75;;
71464;SDS011;59274;49.874;9.154;2024-01-30T13:55:39;23.93;;;13.03;;
71464;SDS011;59274;49.874;9.154;2024-01-30T13:58:07;22.70;;;13.00;;
71464;SDS011;59274;49.874;9.154;2024-01-30T14:00:32;28.60;;;13.00;;
71464;SDS011;59274;49.874;9.154;2024-01-30T14:02:59;28.50;;;14.15;;
71464;SDS011;59274;49.874;9.154;2024-01-30T14:05:25;24.92;;;12.57;;
71464;SDS011;59274;49.874;9.154;2024-01-30T14:07:51;25.80;;;12.53;;
71464;SDS011;59274;49.874;9.154;2024-01-30T14:10:17;23.65;;;11.60;;
71464;SDS011;59274;49.874;9.154;2024-01-30T14:12:43;29.67;;;14.43;;
71464;SDS011;59274;49.874;9.154;2024-01-30T14:15:09;21.37;;;11.70;;
71464;SDS011;59274;49.874;9.154;2024-01-30T14:17:35;24.75;;;11.73;;
71464;SDS011;59274;49.874;9.154;2024-01-30T14:20:01;24.83;;;11.45;;
71464;SDS011;59274;49.874;9.154;2024-01-30T14:22:28;26.47;;;12.87;;
71464;SDS011;59274;49.874;9.154;2024-01-30T14:24:53;19.90;;;11.38;;
71464;SDS011;59274;49.874;9.154;2024-01-30T14:27:19;17.63;;;10.10;;
71464;SDS011;59274;49.874;9.154;2024-01-30T14:29:44;23.50;;;13.33;;